createdAt,value
2022-12-31T00:00:28.133Z,100701.39
2022-12-31T00:03:20.028Z,100690.27
2022-12-31T00:05:52.240Z,100677.77
2022-12-31T00:08:24.081Z,100669.98
2022-12-31T00:10:56.626Z,100667.48
2022-12-31T00:13:28.369Z,100668.57
2022-12-31T00:16:12.175Z,100668.02
2022-12-31T00:18:47.829Z,100666.39
2022-12-31T00:21:20.481Z,100655.21
2022-12-31T00:23:52.459Z,100651.51
2022-12-31T00:26:25.998Z,100645.44
2022-12-31T00:28:59.126Z,100645.23
2022-12-31T00:31:33.051Z,100638.40
2022-12-31T00:34:05.118Z,100632.66
2022-12-31T00:36:38.676Z,100635.79
2022-12-31T00:39:11.148Z,100635.46
2022-12-31T00:41:45.378Z,100625.58
2022-12-31T00:44:17.133Z,100632.41
2022-12-31T00:46:49.066Z,100625.40
2022-12-31T00:49:20.831Z,100625.60
2022-12-31T00:51:52.949Z,100633.41
2022-12-31T00:54:24.727Z,100633.75
2022-12-31T00:56:56.705Z,100627.10
2022-12-31T00:59:28.466Z,100623.61
2022-12-31T01:02:00.993Z,100620.56
2022-12-31T01:04:32.909Z,100610.80
2022-12-31T01:07:04.967Z,100606.58
2022-12-31T01:09:36.791Z,100598.79
2022-12-31T01:12:09.607Z,100593.70
2022-12-31T01:14:41.569Z,100587.56
2022-12-31T01:17:14.447Z,100580.66
2022-12-31T01:19:46.251Z,100583.33
2022-12-31T01:22:18.574Z,100574.70
2022-12-31T01:24:50.351Z,100572.48
2022-12-31T01:27:22.246Z,100570.80
2022-12-31T01:29:54.032Z,100566.12
2022-12-31T01:32:26.263Z,100567.48
2022-12-31T01:34:58.076Z,100569.91
2022-12-31T01:37:30.717Z,100568.44
2022-12-31T01:40:02.515Z,100571.18
2022-12-31T01:42:34.769Z,100571.29
2022-12-31T01:45:10.298Z,100559.86
2022-12-31T01:47:45.518Z,100560.92
2022-12-31T01:50:21.787Z,100556.54
2022-12-31T01:52:57.794Z,100551.84
2022-12-31T01:55:31.882Z,100544.82
2022-12-31T01:58:08.271Z,100543.85
2022-12-31T02:00:40.485Z,100535.16
2022-12-31T02:03:12.665Z,100534.13
2022-12-31T02:05:47.420Z,100525.55
2022-12-31T02:08:19.460Z,100522.20
2022-12-31T02:10:51.258Z,100519.34
2022-12-31T02:13:23.546Z,100517.65
2022-12-31T02:16:01.234Z,100517.64
2022-12-31T02:18:38.188Z,100519.62
2022-12-31T02:21:38.118Z,100516.63
2022-12-31T02:24:24.838Z,100520.17
2022-12-31T02:27:06.819Z,100506.16
2022-12-31T02:30:07.208Z,100496.36
2022-12-31T02:33:04.119Z,100489.02
2022-12-31T02:35:42.981Z,100477.44
2022-12-31T02:38:17.456Z,100474.23
2022-12-31T02:40:49.672Z,100475.77
2022-12-31T02:43:21.496Z,100477.10
2022-12-31T02:45:58.004Z,100466.45
2022-12-31T02:48:43.742Z,100471.14
2022-12-31T02:51:23.065Z,100480.45
2022-12-31T02:54:07.377Z,100481.63
2022-12-31T02:56:43.597Z,100484.16
2022-12-31T02:59:36.991Z,100485.08
2022-12-31T03:02:15.867Z,100476.49
2022-12-31T03:04:50.308Z,100471.27
2022-12-31T03:07:24.839Z,100462.54
2022-12-31T03:09:56.869Z,100459.38
2022-12-31T03:12:49.119Z,100463.82
2022-12-31T03:15:23.569Z,100475.64
2022-12-31T03:17:58.383Z,100481.03
2022-12-31T03:20:50.943Z,100487.96
2022-12-31T03:23:25.362Z,100484.73
2022-12-31T03:25:57.554Z,100485.63
2022-12-31T03:28:30.955Z,100478.81
2022-12-31T03:31:04.793Z,100486.45
2022-12-31T03:33:38.723Z,100474.23
2022-12-31T03:36:12.985Z,100467.29
2022-12-31T03:38:48.568Z,100469.38
2022-12-31T03:41:24.347Z,100467.39
2022-12-31T03:43:56.434Z,100473.15
2022-12-31T03:46:28.171Z,100481.34
2022-12-31T03:49:00.052Z,100485.27
2022-12-31T03:51:31.906Z,100486.09
2022-12-31T03:54:03.824Z,100485.48
2022-12-31T03:56:35.716Z,100485.73
2022-12-31T03:59:10.585Z,100485.75
2022-12-31T04:01:44.178Z,100483.63
2022-12-31T04:04:17.439Z,100484.70
2022-12-31T04:06:49.292Z,100487.91
2022-12-31T04:09:21.500Z,100486.16
2022-12-31T04:11:53.293Z,100488.21
2022-12-31T04:14:25.137Z,100479.21
2022-12-31T04:16:57.095Z,100486.09
2022-12-31T04:19:29.044Z,100487.39
2022-12-31T04:22:00.915Z,100490.69
2022-12-31T04:24:33.138Z,100488.98
2022-12-31T04:27:07.770Z,100480.63
2022-12-31T04:29:40.365Z,100476.64
2022-12-31T04:32:12.579Z,100475.59
2022-12-31T04:34:44.618Z,100476.49
2022-12-31T04:37:16.689Z,100469.29
2022-12-31T04:39:48.702Z,100469.59
2022-12-31T04:42:20.549Z,100472.80
2022-12-31T04:44:52.497Z,100475.42
2022-12-31T04:47:24.326Z,100472.52
2022-12-31T04:49:56.265Z,100457.58
2022-12-31T04:52:28.142Z,100453.12
2022-12-31T04:55:00.239Z,100446.92
2022-12-31T04:57:32.227Z,100451.93
2022-12-31T05:00:04.717Z,100449.04
2022-12-31T05:02:36.662Z,100453.10
2022-12-31T05:05:10.028Z,100462.19
2022-12-31T05:07:41.975Z,100468.70
2022-12-31T05:10:14.113Z,100467.43
2022-12-31T05:12:46.059Z,100473.04
2022-12-31T05:15:18.802Z,100475.64
2022-12-31T05:17:50.967Z,100474.11
2022-12-31T05:20:22.989Z,100469.65
2022-12-31T05:22:54.770Z,100462.69
2022-12-31T05:25:26.965Z,100458.30
2022-12-31T05:27:58.926Z,100462.75
2022-12-31T05:30:30.836Z,100463.63
2022-12-31T05:33:03.477Z,100464.79
2022-12-31T05:35:35.575Z,100470.64
2022-12-31T05:38:07.559Z,100468.53
2022-12-31T05:40:39.461Z,100474.91
2022-12-31T05:43:11.540Z,100475.27
2022-12-31T05:45:43.571Z,100472.44
2022-12-31T05:48:15.447Z,100472.08
2022-12-31T05:50:47.637Z,100470.80
2022-12-31T05:53:19.823Z,100468.88
2022-12-31T05:55:52.067Z,100465.33
2022-12-31T05:58:24.114Z,100463.66
2022-12-31T06:00:56.039Z,100462.43
2022-12-31T06:03:28.043Z,100463.14
2022-12-31T06:05:59.955Z,100456.89
2022-12-31T06:08:31.958Z,100462.23
2022-12-31T06:11:03.725Z,100458.84
2022-12-31T06:13:35.617Z,100461.35
2022-12-31T06:16:11.985Z,100459.18
2022-12-31T06:18:43.770Z,100453.84
2022-12-31T06:21:15.990Z,100454.89
2022-12-31T06:23:48.004Z,100452.34
2022-12-31T06:26:19.889Z,100448.73
2022-12-31T06:28:51.653Z,100450.65
2022-12-31T06:31:23.601Z,100455.17
2022-12-31T06:33:55.489Z,100470.93
2022-12-31T06:36:27.361Z,100475.73
2022-12-31T06:38:59.147Z,100476.96
2022-12-31T06:41:30.926Z,100480.40
2022-12-31T06:44:02.816Z,100477.99
2022-12-31T06:46:34.659Z,100474.05
2022-12-31T06:49:06.465Z,100469.84
2022-12-31T06:51:38.329Z,100465.98
2022-12-31T06:54:10.303Z,100466.55
2022-12-31T06:56:43.526Z,100472.43
2022-12-31T06:59:26.740Z,100476.59
2022-12-31T07:02:09.382Z,100480.88
2022-12-31T07:05:12.749Z,100479.83
2022-12-31T07:07:53.445Z,100476.20
2022-12-31T07:10:32.013Z,100481.08
2022-12-31T07:13:32.440Z,100485.15
2022-12-31T07:16:18.030Z,100492.05
2022-12-31T07:18:54.827Z,100498.58
2022-12-31T07:21:34.741Z,100506.84
2022-12-31T07:24:09.511Z,100511.39
2022-12-31T07:27:02.001Z,100519.27
2022-12-31T07:29:45.801Z,100517.27
2022-12-31T07:32:26.706Z,100514.26
2022-12-31T07:35:05.345Z,100507.73
2022-12-31T07:37:43.965Z,100511.36
2022-12-31T07:40:19.816Z,100519.95
2022-12-31T07:43:02.936Z,100527.02
2022-12-31T07:45:39.298Z,100522.44
2022-12-31T07:48:22.397Z,100519.34
2022-12-31T07:50:56.319Z,100514.05
2022-12-31T07:53:29.814Z,100519.67
2022-12-31T07:56:03.830Z,100516.39
2022-12-31T07:58:54.428Z,100508.31
2022-12-31T08:01:36.357Z,100509.84
2022-12-31T08:04:11.339Z,100507.34
2022-12-31T08:06:50.055Z,100509.77
2022-12-31T08:09:32.719Z,100508.64
2022-12-31T08:12:05.239Z,100513.40
2022-12-31T08:14:41.513Z,100516.83
2022-12-31T08:17:15.865Z,100521.15
2022-12-31T08:19:48.735Z,100518.73
2022-12-31T08:22:38.903Z,100521.87
2022-12-31T08:25:21.054Z,100526.31
2022-12-31T08:28:04.349Z,100515.75
2022-12-31T08:30:45.835Z,100516.19
2022-12-31T08:33:23.410Z,100516.82
2022-12-31T08:36:04.725Z,100514.41
2022-12-31T08:38:41.975Z,100519.20
2022-12-31T08:41:19.583Z,100527.01
2022-12-31T08:43:57.303Z,100534.71
2022-12-31T08:46:32.974Z,100539.61
2022-12-31T08:49:05.712Z,100543.80
2022-12-31T08:51:38.522Z,100548.37
2022-12-31T08:54:13.462Z,100544.70
2022-12-31T08:56:50.792Z,100543.06
2022-12-31T08:59:34.876Z,100544.91
2022-12-31T09:02:27.270Z,100549.17
2022-12-31T09:05:05.346Z,100546.48
2022-12-31T09:07:39.580Z,100542.96
2022-12-31T09:10:18.739Z,100547.20
2022-12-31T09:12:55.808Z,100547.02
2022-12-31T09:15:34.551Z,100545.88
2022-12-31T09:18:08.600Z,100542.48
2022-12-31T09:20:43.864Z,100534.84
2022-12-31T09:23:17.438Z,100528.01
2022-12-31T09:26:00.531Z,100528.85
2022-12-31T09:28:41.205Z,100531.66
2022-12-31T09:31:17.009Z,100524.89
2022-12-31T09:33:54.435Z,100508.12
2022-12-31T09:36:31.414Z,100497.14
2022-12-31T09:39:07.926Z,100488.17
2022-12-31T09:42:19.180Z,100486.80
2022-12-31T09:45:15.252Z,100488.05
2022-12-31T09:48:24.145Z,100493.07
2022-12-31T09:51:06.605Z,100487.38
2022-12-31T09:54:00.331Z,100480.21
2022-12-31T09:56:34.056Z,100475.27
2022-12-31T09:59:11.916Z,100475.03
2022-12-31T10:02:13.775Z,100476.58
2022-12-31T10:05:03.952Z,100468.43
2022-12-31T10:07:53.440Z,100477.90
2022-12-31T10:10:27.530Z,100482.01
2022-12-31T10:13:22.275Z,100481.33
2022-12-31T10:16:13.848Z,100477.14
2022-12-31T10:18:56.001Z,100478.37
2022-12-31T10:21:50.339Z,100472.36
2022-12-31T10:24:45.056Z,100472.89
2022-12-31T10:27:23.784Z,100471.09
2022-12-31T10:30:04.136Z,100476.42
2022-12-31T10:32:43.381Z,100468.59
2022-12-31T10:35:32.906Z,100455.14
2022-12-31T10:38:16.429Z,100450.00
2022-12-31T10:41:35.069Z,100453.15
2022-12-31T10:44:32.040Z,100453.01
2022-12-31T10:47:23.157Z,100453.45
2022-12-31T10:50:37.836Z,100452.86
2022-12-31T10:54:06.980Z,100439.34
2022-12-31T10:56:55.069Z,100424.09
2022-12-31T10:59:54.346Z,100420.89
2022-12-31T11:02:58.523Z,100425.66
2022-12-31T11:06:21.904Z,100412.94
2022-12-31T11:09:34.544Z,100413.84
2022-12-31T11:12:15.714Z,100409.83
2022-12-31T11:15:01.528Z,100389.64
2022-12-31T11:17:45.046Z,100374.69
2022-12-31T11:20:33.362Z,100369.02
2022-12-31T11:23:12.342Z,100375.70
2022-12-31T11:25:59.571Z,100373.64
2022-12-31T11:29:09.135Z,100380.66
2022-12-31T11:31:58.142Z,100380.16
2022-12-31T11:34:49.143Z,100390.86
2022-12-31T11:37:32.904Z,100398.90
2022-12-31T11:40:22.941Z,100406.86
2022-12-31T11:42:58.756Z,100401.15
2022-12-31T11:45:50.726Z,100397.46
2022-12-31T11:48:31.016Z,100384.14
2022-12-31T11:51:16.044Z,100373.52
2022-12-31T11:54:01.287Z,100365.48
2022-12-31T11:56:36.799Z,100366.61
2022-12-31T11:59:19.020Z,100374.73
2022-12-31T12:01:56.506Z,100380.53
2022-12-31T12:04:28.486Z,100375.94
2022-12-31T12:07:01.706Z,100370.85
2022-12-31T12:09:34.976Z,100375.89
2022-12-31T12:12:08.233Z,100391.20
2022-12-31T12:14:42.816Z,100388.63
2022-12-31T12:17:19.054Z,100386.67
2022-12-31T12:19:56.839Z,100373.77
2022-12-31T12:22:30.614Z,100365.91
2022-12-31T12:25:06.831Z,100369.09
2022-12-31T12:27:38.912Z,100357.52
2022-12-31T12:30:21.840Z,100353.46
2022-12-31T12:32:59.424Z,100359.09
2022-12-31T12:35:32.684Z,100360.10
2022-12-31T12:38:07.032Z,100354.41
2022-12-31T12:40:39.795Z,100351.77
2022-12-31T12:43:24.897Z,100346.44
2022-12-31T12:46:00.241Z,100343.27
2022-12-31T12:48:39.989Z,100345.77
2022-12-31T12:51:23.696Z,100342.71
2022-12-31T12:54:01.363Z,100344.26
2022-12-31T12:56:40.349Z,100341.19
2022-12-31T12:59:50.807Z,100338.59
2022-12-31T13:02:40.295Z,100340.36
2022-12-31T13:05:28.280Z,100341.88
2022-12-31T13:08:08.018Z,100346.69
2022-12-31T13:10:55.790Z,100345.02
2022-12-31T13:13:33.959Z,100341.79
2022-12-31T13:16:12.797Z,100342.52
2022-12-31T13:18:54.325Z,100332.80
2022-12-31T13:21:38.629Z,100323.58
2022-12-31T13:24:19.998Z,100320.05
2022-12-31T13:26:56.103Z,100320.83
2022-12-31T13:29:31.541Z,100327.10
2022-12-31T13:32:06.013Z,100317.66
2022-12-31T13:34:41.565Z,100314.05
2022-12-31T13:37:24.089Z,100317.46
2022-12-31T13:40:01.062Z,100321.46
2022-12-31T13:42:41.246Z,100323.41
2022-12-31T13:45:18.351Z,100322.41
2022-12-31T13:47:53.349Z,100330.17
2022-12-31T13:50:29.776Z,100326.11
2022-12-31T13:53:06.422Z,100333.23
2022-12-31T13:55:41.539Z,100336.09
2022-12-31T13:58:19.128Z,100340.58
2022-12-31T14:00:54.650Z,100340.50
2022-12-31T14:03:35.910Z,100343.02
2022-12-31T14:06:12.517Z,100340.16
2022-12-31T14:08:45.049Z,100342.82
2022-12-31T14:11:24.980Z,100340.70
2022-12-31T14:14:08.804Z,100337.91
2022-12-31T14:16:45.994Z,100345.17
2022-12-31T14:19:30.677Z,100348.83
2022-12-31T14:22:10.242Z,100356.03
2022-12-31T14:24:46.955Z,100354.16
2022-12-31T14:27:23.821Z,100346.33
2022-12-31T14:29:58.250Z,100347.45
2022-12-31T14:33:00.636Z,100350.23
2022-12-31T14:35:41.713Z,100360.50
2022-12-31T14:38:22.650Z,100357.56
2022-12-31T14:41:05.910Z,100360.54
2022-12-31T14:43:54.268Z,100360.83
2022-12-31T14:46:31.074Z,100362.64
2022-12-31T14:49:13.670Z,100365.21
2022-12-31T14:51:45.519Z,100367.06
2022-12-31T14:54:30.258Z,100369.68
2022-12-31T14:57:12.634Z,100366.51
2022-12-31T14:59:54.095Z,100364.89
2022-12-31T15:02:34.154Z,100357.98
2022-12-31T15:05:18.520Z,100360.77
2022-12-31T15:07:59.178Z,100358.98
2022-12-31T15:10:43.177Z,100361.85
2022-12-31T15:13:26.526Z,100354.63
2022-12-31T15:16:24.789Z,100358.39
2022-12-31T15:19:13.908Z,100353.12
2022-12-31T15:21:56.999Z,100350.05
2022-12-31T15:24:30.766Z,100344.84
2022-12-31T15:27:05.578Z,100347.93
2022-12-31T15:29:44.134Z,100356.94
2022-12-31T15:32:24.022Z,100347.20
2022-12-31T15:35:05.193Z,100343.39
2022-12-31T15:37:39.190Z,100338.63
2022-12-31T15:40:25.067Z,100343.11
2022-12-31T15:42:58.551Z,100342.09
2022-12-31T15:45:37.926Z,100343.31
2022-12-31T15:48:15.138Z,100347.04
2022-12-31T15:50:47.625Z,100340.09
2022-12-31T15:53:30.124Z,100342.15
2022-12-31T15:56:03.696Z,100344.94
2022-12-31T15:58:36.745Z,100342.02
2022-12-31T16:01:14.007Z,100338.05
2022-12-31T16:03:48.200Z,100341.27
2022-12-31T16:06:20.830Z,100339.42
2022-12-31T16:08:53.572Z,100336.52
2022-12-31T16:11:27.323Z,100344.13
2022-12-31T16:14:01.154Z,100340.73
2022-12-31T16:16:34.401Z,100346.05
2022-12-31T16:19:15.988Z,100342.50
2022-12-31T16:21:49.631Z,100353.73
2022-12-31T16:24:30.591Z,100354.34
2022-12-31T16:27:05.779Z,100364.98
2022-12-31T16:29:39.176Z,100369.80
2022-12-31T16:32:13.700Z,100377.13
2022-12-31T16:34:46.192Z,100377.94
2022-12-31T16:37:19.699Z,100376.90
2022-12-31T16:40:18.520Z,100380.27
2022-12-31T16:42:53.238Z,100376.19
2022-12-31T16:45:36.394Z,100373.56
2022-12-31T16:48:18.260Z,100377.56
2022-12-31T16:50:53.564Z,100366.48
2022-12-31T16:53:27.993Z,100365.52
2022-12-31T16:56:03.664Z,100357.44
2022-12-31T16:58:40.890Z,100364.62
2022-12-31T17:01:17.948Z,100367.99
2022-12-31T17:03:53.954Z,100372.19
2022-12-31T17:06:28.256Z,100369.81
2022-12-31T17:09:15.085Z,100367.30
2022-12-31T17:11:52.638Z,100366.73
2022-12-31T17:14:30.504Z,100368.39
2022-12-31T17:17:05.134Z,100372.38
2022-12-31T17:19:42.778Z,100373.38
2022-12-31T17:22:24.129Z,100369.05
2022-12-31T17:25:05.542Z,100372.22
2022-12-31T17:27:38.744Z,100375.25
2022-12-31T17:30:37.639Z,100376.05
2022-12-31T17:33:29.946Z,100379.24
2022-12-31T17:36:20.609Z,100392.38
2022-12-31T17:38:52.856Z,100384.91
2022-12-31T17:41:29.034Z,100385.11
2022-12-31T17:44:00.864Z,100387.34
2022-12-31T17:46:32.885Z,100387.22
2022-12-31T17:49:05.250Z,100381.31
2022-12-31T17:51:37.937Z,100386.30
2022-12-31T17:54:16.410Z,100392.33
2022-12-31T17:56:48.959Z,100394.41
2022-12-31T17:59:23.948Z,100396.37
2022-12-31T18:01:55.882Z,100397.33
2022-12-31T18:04:28.839Z,100393.63
2022-12-31T18:07:00.696Z,100391.14
2022-12-31T18:09:35.431Z,100393.51
2022-12-31T18:12:08.795Z,100406.39
2022-12-31T18:14:48.287Z,100411.06
2022-12-31T18:17:20.175Z,100405.37
2022-12-31T18:20:04.876Z,100405.27
2022-12-31T18:22:37.499Z,100410.13
2022-12-31T18:25:11.226Z,100411.13
2022-12-31T18:27:43.176Z,100411.75
2022-12-31T18:30:17.806Z,100414.55
2022-12-31T18:32:49.896Z,100411.67
2022-12-31T18:38:16.902Z,100414.23
2022-12-31T18:40:55.201Z,100411.60
2022-12-31T18:43:27.193Z,100409.22
2022-12-31T18:45:59.174Z,100412.42
2022-12-31T18:48:31.277Z,100417.45
2022-12-31T18:51:03.250Z,100420.74
2022-12-31T18:53:35.027Z,100415.67
2022-12-31T18:56:07.748Z,100407.92
2022-12-31T18:58:39.612Z,100404.77
2022-12-31T19:01:25.763Z,100410.77
2022-12-31T19:03:58.878Z,100408.10
2022-12-31T19:06:31.259Z,100411.25
2022-12-31T19:09:06.383Z,100415.61
2022-12-31T19:11:50.193Z,100419.66
2022-12-31T19:14:24.639Z,100427.34
2022-12-31T19:19:30.715Z,100435.49
2022-12-31T19:22:02.775Z,100439.88
2022-12-31T19:24:34.985Z,100444.15
2022-12-31T19:27:06.955Z,100437.19
2022-12-31T19:29:38.850Z,100434.64
2022-12-31T19:32:10.749Z,100439.36
2022-12-31T19:34:42.704Z,100434.54
2022-12-31T19:37:17.427Z,100433.08
2022-12-31T19:39:51.708Z,100430.58
2022-12-31T19:42:23.708Z,100430.80
2022-12-31T19:44:55.661Z,100439.27
2022-12-31T19:47:27.761Z,100441.85
2022-12-31T19:49:59.925Z,100444.71
2022-12-31T19:52:31.830Z,100447.13
2022-12-31T19:55:03.628Z,100439.97
2022-12-31T19:57:35.778Z,100440.13
2022-12-31T20:00:10.753Z,100436.55
2022-12-31T20:02:43.146Z,100436.18
2022-12-31T20:05:16.801Z,100437.56
2022-12-31T20:07:48.773Z,100437.64
2022-12-31T20:10:20.975Z,100435.64
2022-12-31T20:12:53.203Z,100438.73
2022-12-31T20:15:25.304Z,100437.89
2022-12-31T20:17:58.672Z,100439.09
2022-12-31T20:20:30.526Z,100441.46
2022-12-31T20:23:02.829Z,100437.60
2022-12-31T20:25:34.782Z,100431.58
2022-12-31T20:28:06.928Z,100432.57
2022-12-31T20:30:39.868Z,100434.86
2022-12-31T20:33:17.311Z,100431.66
2022-12-31T20:35:52.374Z,100430.77
2022-12-31T20:38:24.140Z,100435.79
2022-12-31T20:40:56.298Z,100444.14
2022-12-31T20:43:28.115Z,100445.34
2022-12-31T20:45:59.918Z,100445.05
2022-12-31T20:48:33.947Z,100451.04
2022-12-31T20:51:04.300Z,100455.69
2022-12-31T20:53:36.148Z,100458.86
2022-12-31T20:56:09.541Z,100452.33
2022-12-31T20:58:41.357Z,100447.77
2022-12-31T21:01:13.976Z,100443.50
2022-12-31T21:04:05.536Z,100442.02
2022-12-31T21:06:38.613Z,100445.77
2022-12-31T21:09:10.775Z,100447.65
2022-12-31T21:12:00.531Z,100454.59
2022-12-31T21:14:32.427Z,100454.34
2022-12-31T21:17:04.426Z,100450.75
2022-12-31T21:19:36.251Z,100456.91
2022-12-31T21:22:08.300Z,100449.80
2022-12-31T21:24:40.218Z,100456.88
2022-12-31T21:27:12.166Z,100456.81
2022-12-31T21:30:16.482Z,100455.75
2022-12-31T21:32:36.046Z,100457.84
2022-12-31T21:35:41.241Z,100463.20
2022-12-31T21:38:04.010Z,100466.31
2022-12-31T21:40:36.062Z,100467.27
2022-12-31T21:43:08.311Z,100465.86
2022-12-31T21:45:40.323Z,100461.88
2022-12-31T21:48:22.142Z,100458.02
2022-12-31T21:50:55.443Z,100463.11
2022-12-31T21:53:34.119Z,100460.54
2022-12-31T21:56:09.930Z,100459.20
2022-12-31T21:58:44.312Z,100459.52
2022-12-31T22:01:38.189Z,100462.38
2022-12-31T22:04:35.164Z,100455.08
2022-12-31T22:07:01.973Z,100451.23
2022-12-31T22:09:34.316Z,100453.40
2022-12-31T22:12:06.909Z,100460.48
2022-12-31T22:14:38.808Z,100458.25
2022-12-31T22:17:10.670Z,100450.38
2022-12-31T22:20:08.643Z,100450.42
2022-12-31T22:22:34.470Z,100452.13
2022-12-31T22:25:07.091Z,100457.15
2022-12-31T22:27:38.920Z,100450.20
2022-12-31T22:30:12.448Z,100458.34
2022-12-31T22:32:44.266Z,100461.52
2022-12-31T22:35:16.820Z,100452.66
2022-12-31T22:37:59.043Z,100448.67
2022-12-31T22:40:33.730Z,100447.29
2022-12-31T22:43:05.485Z,100448.28
2022-12-31T22:45:38.901Z,100447.04
2022-12-31T22:48:10.849Z,100442.64
2022-12-31T22:50:42.853Z,100439.02
2022-12-31T22:53:14.640Z,100443.54
2022-12-31T22:55:46.694Z,100450.51
2022-12-31T22:58:20.796Z,100450.27
2022-12-31T23:00:52.973Z,100459.48
2022-12-31T23:03:26.130Z,100451.49
2022-12-31T23:05:58.160Z,100444.02
2022-12-31T23:08:29.995Z,100445.21
2022-12-31T23:11:05.735Z,100453.62
2022-12-31T23:13:58.802Z,100449.23
2022-12-31T23:16:49.280Z,100445.68
2022-12-31T23:19:38.485Z,100455.86
2022-12-31T23:22:27.877Z,100461.86
2022-12-31T23:24:59.654Z,100459.33
2022-12-31T23:27:31.501Z,100460.09
2022-12-31T23:30:03.321Z,100458.45
2022-12-31T23:32:35.296Z,100449.02
2022-12-31T23:35:09.994Z,100442.87
2022-12-31T23:37:42.237Z,100447.35
2022-12-31T23:40:20.973Z,100445.92
2022-12-31T23:42:54.107Z,100445.20
2022-12-31T23:45:32.658Z,100449.80
2022-12-31T23:48:06.170Z,100454.85
2022-12-31T23:50:37.976Z,100459.21
2022-12-31T23:53:09.976Z,100465.35
2022-12-31T23:55:41.765Z,100459.08
2022-12-31T23:58:13.695Z,100453.63
